Time;durP1;ratioP1;P1;durP2;ratioP2;P2;SDS_P1;SDS_P2;PMS_P1;PMS_P2;Temp;Humidity;BMP_temperature;BMP_pressure;BME280_temperature;BME280_humidity;BME280_pressure;Samples;Min_cycle;Max_cycle;Signal;HPM_P1;HPM_P2
2023/10/25 00:01:42;;;;;;;;;;;;;;;;;;4985442;28;89582;-64
2023/10/25 00:04:07;;;;;;;;;;;;;;;;;;4985092;28;89656;-64
2023/10/25 00:06:32;;;;;;;;;;;;;;;;;;4984876;28;89380;-65
2023/10/25 00:08:58;;;;;;;;;;;;;;;;;;4985049;28;89116;-64
2023/10/25 00:11:23;;;;;;;;;;;;;;;;;;4982771;28;90141;-65
2023/10/25 00:13:49;;;;;;;;;;;;;;;;;;4984928;28;89515;-65
2023/10/25 00:16:15;;;;;;;;;;;;;;;;;;4987989;28;90305;-64
2023/10/25 00:18:40;;;;;;;;;;;;;;;;;;4984931;28;90713;-63
2023/10/25 00:21:05;;;;;;;;;;;;;;;;;;4985254;28;90438;-66
2023/10/25 00:23:30;;;;;;;;;;;;;;;;;;4985462;28;90408;-65
2023/10/25 00:25:55;;;;;;;;;;;;;;;;;;4984392;28;90540;-65
2023/10/25 00:28:21;;;;;;;;;;;;;;;;;;4985223;28;89166;-64
2023/10/25 00:30:46;;;;;;;;;;;;;;;;;;4984793;28;89817;-64
2023/10/25 00:33:11;;;;;;;;;;;;;;;;;;4984619;28;89412;-65
2023/10/25 00:35:36;;;;;;;;;;;;;;;;;;4986961;28;89049;-65
2023/10/25 00:38:02;;;;;;;;;;;;;;;;;;4990898;28;89629;-64
2023/10/25 00:40:27;;;;;;;;;;;;;;;;;;4970998;28;89604;-63
2023/10/25 00:42:52;;;;;;;;;;;;;;;;;;4987979;28;89589;-64
2023/10/25 00:45:17;;;;;;;;;;;;;;;;;;4988639;28;89580;-64
2023/10/25 00:47:43;;;;;;;;;;;;;;;;;;4987958;28;90682;-65
2023/10/25 00:50:09;;;;;;;;;;;;;;;;;;4988070;28;90929;-65
2023/10/25 00:52:35;;;;;;;;;;;;;;;;;;4987041;28;89686;-64
2023/10/25 00:55:01;;;;;;;;;;;;;;;;;;4988512;28;89063;-65
2023/10/25 00:57:26;;;;;;;;;;;;;;;;;;4969501;28;91824;-65
2023/10/25 00:59:51;;;;;;;;;;;;;;;;;;4990521;28;90326;-64
2023/10/25 01:02:17;;;;;;;;;;;;;;;;;;4987430;28;89065;-65
2023/10/25 01:04:42;;;;;;;;;;;;;;;;;;4969800;28;92140;-64
2023/10/25 01:07:07;;;;;;;;;;;;;;;;;;4987505;28;90534;-65
2023/10/25 01:09:33;;;;;;;;;;;;;;;;;;4987478;28;90013;-64
2023/10/25 01:11:58;;;;;;;;;;;;;;;;;;4987416;28;89787;-64
2023/10/25 01:14:27;;;;;;;;;;;;;;;;;;4987190;28;89239;-64
2023/10/25 01:16:52;;;;;;;;;;;;;;;;;;4987984;28;89723;-65
2023/10/25 01:19:17;;;;;;;;;;;;;;;;;;4987763;28;90613;-65
2023/10/25 01:21:43;;;;;;;;;;;;;;;;;;4990237;28;89008;-64
2023/10/25 01:24:09;;;;;;;;;;;;;;;;;;4987223;28;89255;-64
2023/10/25 01:26:34;;;;;;;;;;;;;;;;;;4986178;28;89328;-65
2023/10/25 01:29:00;;;;;;;;;;;;;;;;;;4987410;28;90881;-64
2023/10/25 01:31:25;;;;;;;;;;;;;;;;;;4987499;28;89785;-66
2023/10/25 01:33:51;;;;;;;;;;;;;;;;;;4988555;28;89744;-64
2023/10/25 01:36:18;;;;;;;;;;;;;;;;;;4987434;28;89269;-65
2023/10/25 01:38:43;;;;;;;;;;;;;;;;;;4968904;28;91982;-64
2023/10/25 01:41:15;;;;;;;;;;;;;;;;;;4990028;28;89450;-65
2023/10/25 01:43:41;;;;;;;;;;;;;;;;;;4987122;28;90482;-65
2023/10/25 01:46:06;;;;;;;;;;;;;;;;;;4986231;28;89516;-64
2023/10/25 01:48:31;;;;;;;;;;;;;;;;;;4986729;28;91397;-65
2023/10/25 01:50:57;;;;;;;;;;;;;;;;;;4986911;28;89826;-65
2023/10/25 01:53:22;;;;;;;;;;;;;;;;;;4986855;28;89364;-62
2023/10/25 01:55:50;;;;;;;;;;;;;;;;;;4986252;28;90236;-64
2023/10/25 01:58:16;;;;;;;;;;;;;;;;;;4985783;28;89233;-63
2023/10/25 02:00:41;;;;;;;;;;;;;;;;;;4986568;28;90376;-65
2023/10/25 02:03:07;;;;;;;;;;;;;;;;;;4989378;28;89794;-64
2023/10/25 02:05:32;;;;;;;;;;;;;;;;;;4987292;28;89022;-65
2023/10/25 02:07:57;;;;;;;;;;;;;;;;;;4985564;28;90087;-65
2023/10/25 02:10:22;;;;;;;;;;;;;;;;;;4986951;28;90155;-63
2023/10/25 02:12:47;;;;;;;;;;;;;;;;;;4986957;28;89556;-64
2023/10/25 02:15:13;;;;;;;;;;;;;;;;;;4986436;28;89481;-65
2023/10/25 02:17:38;;;;;;;;;;;;;;;;;;4986950;28;89355;-64
2023/10/25 02:20:04;;;;;;;;;;;;;;;;;;4986724;28;89128;-64
2023/10/25 02:22:29;;;;;;;;;;;;;;;;;;4986013;28;91565;-64
2023/10/25 02:24:54;;;;;;;;;;;;;;;;;;4985476;28;89554;-65
2023/10/25 02:27:19;;;;;;;;;;;;;;;;;;4986592;28;90730;-65
2023/10/25 02:29:45;;;;;;;;;;;;;;;;;;4986204;28;90290;-65
2023/10/25 02:32:10;;;;;;;;;;;;;;;;;;4986301;28;90119;-63
2023/10/25 02:34:36;;;;;;;;;;;;;;;;;;4986184;28;90585;-64
2023/10/25 02:37:02;;;;;;;;;;;;;;;;;;4986613;28;90258;-64
2023/10/25 02:39:27;;;;;;;;;;;;;;;;;;4986249;28;89847;-64
2023/10/25 02:41:52;;;;;;;;;;;;;;;;;;4986828;28;89617;-64
2023/10/25 02:44:18;;;;;;;;;;;;;;;;;;4985990;28;89659;-64
2023/10/25 02:46:43;;;;;;;;;;;;;;;;;;4988535;28;89128;-64
2023/10/25 02:49:08;;;;;;;;;;;;;;;;;;4985448;28;89252;-64
2023/10/25 02:51:34;;;;;;;;;;;;;;;;;;4985414;28;89004;-64
2023/10/25 02:53:59;;;;;;;;;;;;;;;;;;4985900;28;90989;-64
2023/10/25 02:56:24;;;;;;;;;;;;;;;;;;4968350;28;92217;-64
2023/10/25 02:58:49;;;;;;;;;;;;;;;;;;4985211;28;89585;-65
2023/10/25 03:01:22;;;;;;;;;;;;;;;;;;4985857;28;90738;-66
2023/10/25 03:03:47;;;;;;;;;;;;;;;;;;4985234;28;90363;-64
2023/10/25 03:06:12;;;;;;;;;;;;;;;;;;4985998;28;89483;-64
2023/10/25 03:08:37;;;;;;;;;;;;;;;;;;4986718;28;89820;-65
2023/10/25 03:11:03;;;;;;;;;;;;;;;;;;4985598;28;89089;-64
2023/10/25 03:13:28;;;;;;;;;;;;;;;;;;4985745;28;89966;-65
2023/10/25 03:15:53;;;;;;;;;;;;;;;;;;4985844;28;89143;-64
2023/10/25 03:18:19;;;;;;;;;;;;;;;;;;4985450;28;89202;-64
2023/10/25 03:20:45;;;;;;;;;;;;;;;;;;4986009;28;89977;-65
2023/10/25 03:23:10;;;;;;;;;;;;;;;;;;4983181;28;89415;-64
2023/10/25 03:25:35;;;;;;;;;;;;;;;;;;4985842;28;90018;-65
2023/10/25 03:28:00;;;;;;;;;;;;;;;;;;4984871;28;89585;-65
2023/10/25 03:30:25;;;;;;;;;;;;;;;;;;4989863;28;89713;-65
2023/10/25 03:32:51;;;;;;;;;;;;;;;;;;4985363;28;90037;-65
2023/10/25 03:35:16;;;;;;;;;;;;;;;;;;4985729;28;89230;-65
2023/10/25 03:37:41;;;;;;;;;;;;;;;;;;4985592;28;89102;-65
2023/10/25 03:40:10;;;;;;;;;;;;;;;;;;4985570;28;90736;-64
2023/10/25 03:42:36;;;;;;;;;;;;;;;;;;4985165;28;91026;-65
2023/10/25 03:45:01;;;;;;;;;;;;;;;;;;4985720;28;89302;-64
2023/10/25 03:47:27;;;;;;;;;;;;;;;;;;4984309;28;92939;-63
2023/10/25 03:49:52;;;;;;;;;;;;;;;;;;4987262;28;89125;-64
2023/10/25 03:52:18;;;;;;;;;;;;;;;;;;4985139;28;90717;-63
2023/10/25 03:54:43;;;;;;;;;;;;;;;;;;4985108;28;90250;-63
2023/10/25 03:57:08;;;;;;;;;;;;;;;;;;4985630;28;89189;-64
2023/10/25 03:59:33;;;;;;;;;;;;;;;;;;4985066;28;89859;-63
2023/10/25 04:01:59;;;;;;;;;;;;;;;;;;4985533;28;89604;-64
2023/10/25 04:04:24;;;;;;;;;;;;;;;;;;4984954;28;91186;-65
2023/10/25 04:06:49;;;;;;;;;;;;;;;;;;4985283;28;89661;-64
2023/10/25 04:09:14;;;;;;;;;;;;;;;;;;4986584;28;89263;-63
2023/10/25 04:11:39;;;;;;;;;;;;;;;;;;4992596;28;90301;-64
2023/10/25 04:14:05;;;;;;;;;;;;;;;;;;4987345;28;91694;-64
2023/10/25 04:16:30;;;;;;;;;;;;;;;;;;4987695;28;89811;-65
2023/10/25 04:18:55;;;;;;;;;;;;;;;;;;4988648;28;89493;-65
2023/10/25 04:21:20;;;;;;;;;;;;;;;;;;4988459;28;89247;-64
2023/10/25 04:23:46;;;;;;;;;;;;;;;;;;4988922;28;90683;-64
2023/10/25 04:26:12;;;;;;;;;;;;;;;;;;4989231;28;90693;-65
2023/10/25 04:28:38;;;;;;;;;;;;;;;;;;4970317;28;92162;-63
2023/10/25 04:31:03;;;;;;;;;;;;;;;;;;4987684;28;89826;-63
2023/10/25 04:33:29;;;;;;;;;;;;;;;;;;4991588;28;89543;-63
2023/10/25 04:35:55;;;;;;;;;;;;;;;;;;4987768;28;89060;-64
2023/10/25 04:38:21;;;;;;;;;;;;;;;;;;4987805;28;90647;-63
2023/10/25 04:40:46;;;;;;;;;;;;;;;;;;4988299;28;89779;-64
2023/10/25 04:43:11;;;;;;;;;;;;;;;;;;4988187;28;89436;-64
2023/10/25 04:45:36;;;;;;;;;;;;;;;;;;4987137;28;89546;-64
2023/10/25 04:48:02;;;;;;;;;;;;;;;;;;4987666;28;89725;-64
2023/10/25 04:50:32;;;;;;;;;;;;;;;;;;4988438;28;89362;-63
2023/10/25 04:52:58;;;;;;;;;;;;;;;;;;4988384;28;91049;-65
2023/10/25 04:55:26;;;;;;;;;;;;;;;;;;4990475;28;90470;-64
2023/10/25 04:57:51;;;;;;;;;;;;;;;;;;4984937;28;90665;-63
2023/10/25 05:00:16;;;;;;;;;;;;;;;;;;4985439;28;90622;-64
2023/10/25 05:02:42;;;;;;;;;;;;;;;;;;4985454;28;90160;-64
2023/10/25 05:05:07;;;;;;;;;;;;;;;;;;4985965;28;89657;-65
2023/10/25 05:07:34;;;;;;;;;;;;;;;;;;4983312;28;90160;-65
2023/10/25 05:09:59;;;;;;;;;;;;;;;;;;4985152;28;89520;-65
2023/10/25 05:12:31;;;;;;;;;;;;;;;;;;4985589;28;89569;-65
2023/10/25 05:14:56;;;;;;;;;;;;;;;;;;4985712;28;89107;-65
2023/10/25 05:17:21;;;;;;;;;;;;;;;;;;4989946;28;89759;-65
2023/10/25 05:19:47;;;;;;;;;;;;;;;;;;4983208;28;89821;-63
2023/10/25 05:22:13;;;;;;;;;;;;;;;;;;4971083;28;89870;-64
2023/10/25 05:24:38;;;;;;;;;;;;;;;;;;4968392;28;91916;-65
2023/10/25 05:27:04;;;;;;;;;;;;;;;;;;4986761;28;89477;-64
2023/10/25 05:29:29;;;;;;;;;;;;;;;;;;4985713;28;90807;-64
2023/10/25 05:31:55;;;;;;;;;;;;;;;;;;4985240;28;91244;-63
2023/10/25 05:34:21;;;;;;;;;;;;;;;;;;4985257;28;89973;-64
2023/10/25 05:36:46;;;;;;;;;;;;;;;;;;4985438;28;89786;-64
2023/10/25 05:39:12;;;;;;;;;;;;;;;;;;4988547;28;89700;-63
2023/10/25 05:41:39;;;;;;;;;;;;;;;;;;4985568;28;90385;-63
2023/10/25 05:44:13;;;;;;;;;;;;;;;;;;4985814;28;89688;-64
2023/10/25 05:46:38;;;;;;;;;;;;;;;;;;4985605;28;89853;-64
2023/10/25 05:49:03;;;;;;;;;;;;;;;;;;4985754;28;89577;-63
2023/10/25 05:51:29;;;;;;;;;;;;;;;;;;4985505;28;91042;-64
2023/10/25 05:53:54;;;;;;;;;;;;;;;;;;4984409;28;89921;-64
2023/10/25 05:56:24;;;;;;;;;;;;;;;;;;4985402;28;89832;-64
2023/10/25 05:58:49;;;;;;;;;;;;;;;;;;4986837;28;90641;-64
2023/10/25 06:01:14;;;;;;;;;;;;;;;;;;4986124;28;89782;-64
2023/10/25 06:03:43;;;;;;;;;;;;;;;;;;4984962;28;89806;-63
2023/10/25 06:06:11;;;;;;;;;;;;;;;;;;4984931;28;89214;-64
2023/10/25 06:08:37;;;;;;;;;;;;;;;;;;4985471;28;89474;-64
2023/10/25 06:11:03;;;;;;;;;;;;;;;;;;4985669;28;89494;-64
2023/10/25 06:13:28;;;;;;;;;;;;;;;;;;4985243;28;90546;-63
2023/10/25 06:15:53;;;;;;;;;;;;;;;;;;4984744;28;90116;-64
2023/10/25 06:18:19;;;;;;;;;;;;;;;;;;4985021;28;89510;-64
2023/10/25 06:20:44;;;;;;;;;;;;;;;;;;4987690;28;89715;-64
2023/10/25 06:23:09;;;;;;;;;;;;;;;;;;4967278;28;89804;-63
2023/10/25 06:25:34;;;;;;;;;;;;;;;;;;4970320;28;90039;-66
2023/10/25 06:27:59;;;;;;;;;;;;;;;;;;4985650;28;89564;-63
2023/10/25 06:30:28;;;;;;;;;;;;;;;;;;4985025;28;89980;-63
2023/10/25 06:32:54;;;;;;;;;;;;;;;;;;4984394;28;89322;-64
2023/10/25 06:35:19;;;;;;;;;;;;;;;;;;4985329;28;89797;-64
2023/10/25 06:37:44;;;;;;;;;;;;;;;;;;4985174;28;89544;-63
2023/10/25 06:40:10;;;;;;;;;;;;;;;;;;4985419;28;90851;-63
2023/10/25 06:42:35;;;;;;;;;;;;;;;;;;4986834;28;89130;-64
2023/10/25 06:45:01;;;;;;;;;;;;;;;;;;4985541;28;89389;-64
2023/10/25 06:47:28;;;;;;;;;;;;;;;;;;4984456;28;89757;-65
2023/10/25 06:49:53;;;;;;;;;;;;;;;;;;4984564;28;90575;-63
2023/10/25 06:52:18;;;;;;;;;;;;;;;;;;4984652;28;92080;-65
2023/10/25 06:54:44;;;;;;;;;;;;;;;;;;4984010;28;89478;-64
2023/10/25 06:57:09;;;;;;;;;;;;;;;;;;4984188;28;91059;-64
2023/10/25 06:59:34;;;;;;;;;;;;;;;;;;4983995;28;90524;-64
2023/10/25 07:02:09;;;;;;;;;;;;;;;;;;4983990;28;89376;-66
2023/10/25 07:04:34;;;;;;;;;;;;;;;;;;4987223;28;89674;-66
2023/10/25 07:07:01;;;;;;;;;;;;;;;;;;4982381;28;89623;-66
2023/10/25 07:09:26;;;;;;;;;;;;;;;;;;4983597;28;89852;-63
2023/10/25 07:11:51;;;;;;;;;;;;;;;;;;4984075;28;89694;-64
2023/10/25 07:14:16;;;;;;;;;;;;;;;;;;4984271;28;89274;-65
2023/10/25 07:16:42;;;;;;;;;;;;;;;;;;4983318;28;89560;-63
2023/10/25 07:19:07;;;;;;;;;;;;;;;;;;4983844;28;89983;-64
2023/10/25 07:21:32;;;;;;;;;;;;;;;;;;4984474;28;89289;-65
2023/10/25 07:23:57;;;;;;;;;;;;;;;;;;4984661;28;91127;-68
2023/10/25 07:26:22;;;;;;;;;;;;;;;;;;4986887;28;89979;-62
2023/10/25 07:28:48;;;;;;;;;;;;;;;;;;4971413;28;91464;-62
2023/10/25 07:31:13;;;;;;;;;;;;;;;;;;4985430;28;89607;-62
2023/10/25 07:33:38;;;;;;;;;;;;;;;;;;4983078;28;90866;-63
2023/10/25 07:36:04;;;;;;;;;;;;;;;;;;4983623;28;90600;-63
2023/10/25 07:38:29;;;;;;;;;;;;;;;;;;4984103;28;89620;-62
2023/10/25 07:40:54;;;;;;;;;;;;;;;;;;4984106;28;89180;-62
2023/10/25 07:43:20;;;;;;;;;;;;;;;;;;4982993;28;90026;-62
2023/10/25 07:45:45;;;;;;;;;;;;;;;;;;4984524;28;90710;-62
2023/10/25 07:48:11;;;;;;;;;;;;;;;;;;4999483;28;90077;-62
2023/10/25 07:50:37;;;;;;;;;;;;;;;;;;4980092;28;91320;-62
2023/10/25 07:53:02;;;;;;;;;;;;;;;;;;4981553;28;89587;-62
2023/10/25 07:55:27;;;;;;;;;;;;;;;;;;4981523;28;89575;-61
2023/10/25 07:57:54;;;;;;;;;;;;;;;;;;4982981;28;89389;-62
2023/10/25 08:00:19;;;;;;;;;;;;;;;;;;4984240;28;90236;-61
2023/10/25 08:02:44;;;;;;;;;;;;;;;;;;4983446;28;90526;-63
2023/10/25 08:05:09;;;;;;;;;;;;;;;;;;4983779;28;90378;-63
2023/10/25 08:07:36;;;;;;;;;;;;;;;;;;4986862;28;90525;-63
2023/10/25 08:10:03;;;;;;;;;;;;;;;;;;4966149;28;90544;-62
2023/10/25 08:12:29;;;;;;;;;;;;;;;;;;4984145;28;89104;-62
2023/10/25 08:14:54;;;;;;;;;;;;;;;;;;4981476;28;91010;-62
2023/10/25 08:17:20;;;;;;;;;;;;;;;;;;4982918;28;89376;-62
2023/10/25 08:19:45;;;;;;;;;;;;;;;;;;4980838;28;91287;-62
2023/10/25 08:22:10;;;;;;;;;;;;;;;;;;4983181;28;91210;-62
2023/10/25 08:24:35;;;;;;;;;;;;;;;;;;4981399;28;90244;-62
2023/10/25 08:27:00;;;;;;;;;;;;;;;;;;4983438;28;89489;-63
2023/10/25 08:29:26;;;;;;;;;;;;;;;;;;4970692;28;92245;-61
2023/10/25 08:31:52;;;;;;;;;;;;;;;;;;4983513;28;89548;-62
2023/10/25 08:34:17;;;;;;;;;;;;;;;;;;4982117;28;89197;-62
2023/10/25 08:36:43;;;;;;;;;;;;;;;;;;4970660;28;92255;-63
2023/10/25 08:39:09;;;;;;;;;;;;;;;;;;4981250;28;89065;-61
2023/10/25 08:41:35;;;;;;;;;;;;;;;;;;4982877;28;90976;-62
2023/10/25 08:44:02;;;;;;;;;;;;;;;;;;4982138;28;90267;-66
2023/10/25 08:46:27;;;;;;;;;;;;;;;;;;4982995;28;91079;-66
2023/10/25 08:48:55;;;;;;;;;;;;;;;;;;4982683;28;91063;-62
2023/10/25 08:51:20;;;;;;;;;;;;;;;;;;4985257;28;90602;-62
2023/10/25 08:53:46;;;;;;;;;;;;;;;;;;4979272;28;89787;-63
2023/10/25 08:56:11;;;;;;;;;;;;;;;;;;4981936;28;89503;-62
2023/10/25 08:58:36;;;;;;;;;;;;;;;;;;4986387;28;89863;-61
2023/10/25 09:01:02;;;;;;;;;;;;;;;;;;4988408;28;89628;-61
2023/10/25 09:03:30;;;;;;;;;;;;;;;;;;4985774;28;89719;-65
2023/10/25 09:05:55;;;;;;;;;;;;;;;;;;4982673;28;89813;-63
2023/10/25 09:08:21;;;;;;;;;;;;;;;;;;4987818;28;90596;-62
2023/10/25 09:11:02;;;;;;;;;;;;;;;;;;4986513;28;89749;-63
2023/10/25 09:13:28;;;;;;;;;;;;;;;;;;4989107;28;90200;-63
2023/10/25 09:16:06;;;;;;;;;;;;;;;;;;4986735;28;89762;-62
2023/10/25 09:18:33;;;;;;;;;;;;;;;;;;4987166;28;89664;-63
2023/10/25 09:20:59;;;;;;;;;;;;;;;;;;4985545;28;90756;-63
2023/10/25 09:23:24;;;;;;;;;;;;;;;;;;4985563;28;90185;-62
2023/10/25 09:25:50;;;;;;;;;;;;;;;;;;4986194;28;90157;-65
2023/10/25 09:28:18;;;;;;;;;;;;;;;;;;4986672;28;90721;-62
2023/10/25 09:30:43;;;;;;;;;;;;;;;;;;4984639;28;90248;-61
2023/10/25 09:33:09;;;;;;;;;;;;;;;;;;4985305;28;90217;-62
2023/10/25 09:35:34;;;;;;;;;;;;;;;;;;4988074;28;90707;-62
2023/10/25 09:37:59;;;;;;;;;;;;;;;;;;4985502;28;89036;-62
2023/10/25 09:40:25;;;;;;;;;;;;;;;;;;4984489;28;89555;-62
2023/10/25 09:42:52;;;;;;;;;;;;;;;;;;4985300;28;89815;-61
2023/10/25 09:45:24;;;;;;;;;;;;;;;;;;4984227;28;90701;-62
2023/10/25 09:47:53;;;;;;;;;;;;;;;;;;4983917;28;90054;-62
2023/10/25 09:50:37;;;;;;;;;;;;;;;;;;4966707;28;90148;-62
2023/10/25 09:53:17;;;;;;;;;;;;;;;;;;4984519;28;90377;-61
2023/10/25 09:55:45;;;;;;;;;;;;;;;;;;4986633;28;90630;-62
2023/10/25 09:58:11;;;;;;;;;;;;;;;;;;4984904;28;89510;-62
2023/10/25 10:00:37;;;;;;;;;;;;;;;;;;4984551;28;91730;-62
2023/10/25 10:03:30;;;;;;;;;;;;;;;;;;4985967;28;89682;-62
2023/10/25 10:06:03;;;;;;;;;;;;;;;;;;4983632;28;89874;-61
2023/10/25 10:08:38;;;;;;;;;;;;;;;;;;4984553;28;90676;-61
2023/10/25 10:11:05;;;;;;;;;;;;;;;;;;4984596;28;90128;-62
2023/10/25 10:13:30;;;;;;;;;;;;;;;;;;5000439;28;89107;-62
2023/10/25 10:15:59;;;;;;;;;;;;;;;;;;4985264;28;90273;-62
2023/10/25 10:18:26;;;;;;;;;;;;;;;;;;4985599;28;90184;-61
2023/10/25 10:20:59;;;;;;;;;;;;;;;;;;4981725;28;90128;-62
2023/10/25 10:23:50;;;;;;;;;;;;;;;;;;4983546;28;90367;-62
2023/10/25 10:26:35;;;;;;;;;;;;;;;;;;4984496;28;89635;-62
2023/10/25 10:29:00;;;;;;;;;;;;;;;;;;4984468;28;90996;-63
2023/10/25 10:31:25;;;;;;;;;;;;;;;;;;4984652;28;89761;-62
2023/10/25 10:33:50;;;;;;;;;;;;;;;;;;4985652;28;89744;-62
2023/10/25 10:36:31;;;;;;;;;;;;;;;;;;4984925;28;89269;-66
2023/10/25 10:39:15;;;;;;;;;;;;;;;;;;4985188;28;89661;-62
2023/10/25 10:41:40;;;;;;;;;;;;;;;;;;5003167;28;89509;-62
2023/10/25 10:44:06;;;;;;;;;;;;;;;;;;4985745;28;89860;-64
2023/10/25 10:46:33;;;;;;;;;;;;;;;;;;4984580;28;89649;-62
2023/10/25 10:49:00;;;;;;;;;;;;;;;;;;4984694;28;90358;-63
2023/10/25 10:51:27;;;;;;;;;;;;;;;;;;4983969;28;89846;-62
2023/10/25 10:53:52;;;;;;;;;;;;;;;;;;4984833;28;90833;-62
2023/10/25 10:56:17;;;;;;;;;;;;;;;;;;4985590;28;90898;-62
2023/10/25 10:58:43;;;;;;;;;;;;;;;;;;4984984;28;90199;-62
2023/10/25 11:01:08;;;;;;;;;;;;;;;;;;4985494;28;90137;-66
2023/10/25 11:03:36;;;;;;;;;;;;;;;;;;4987872;28;91094;-62
2023/10/25 11:06:03;;;;;;;;;;;;;;;;;;4984380;28;89479;-63
2023/10/25 11:08:28;;;;;;;;;;;;;;;;;;4984716;28;89745;-63
2023/10/25 11:10:54;;;;;;;;;;;;;;;;;;4968076;28;92179;-62
2023/10/25 11:13:19;;;;;;;;;;;;;;;;;;4984169;28;89655;-63
2023/10/25 11:15:44;;;;;;;;;;;;;;;;;;4984629;28;89619;-62
2023/10/25 11:18:10;;;;;;;;;;;;;;;;;;4983475;28;89753;-61
2023/10/25 11:20:35;;;;;;;;;;;;;;;;;;4984113;28;89942;-62
2023/10/25 11:23:02;;;;;;;;;;;;;;;;;;4982462;28;89884;-62
2023/10/25 11:25:29;;;;;;;;;;;;;;;;;;4969890;28;90769;-62
2023/10/25 11:27:55;;;;;;;;;;;;;;;;;;4983839;28;90626;-62
2023/10/25 11:30:21;;;;;;;;;;;;;;;;;;4984527;28;90355;-62
2023/10/25 11:32:47;;;;;;;;;;;;;;;;;;4985873;28;89108;-63
2023/10/25 11:35:22;;;;;;;;;;;;;;;;;;4985950;28;89765;-62
2023/10/25 11:37:50;;;;;;;;;;;;;;;;;;4985593;28;90028;-62
2023/10/25 11:40:15;;;;;;;;;;;;;;;;;;4985993;28;89225;-62
2023/10/25 11:42:40;;;;;;;;;;;;;;;;;;4985946;28;89613;-62
2023/10/25 11:45:06;;;;;;;;;;;;;;;;;;4987837;28;90454;-62
2023/10/25 11:47:32;;;;;;;;;;;;;;;;;;4989096;28;89191;-62
2023/10/25 11:49:58;;;;;;;;;;;;;;;;;;4985940;28;89779;-62
2023/10/25 11:52:24;;;;;;;;;;;;;;;;;;4986130;28;89457;-61
2023/10/25 11:54:55;;;;;;;;;;;;;;;;;;4986244;28;91031;-65
2023/10/25 11:57:20;;;;;;;;;;;;;;;;;;4983583;28;90369;-63
2023/10/25 11:59:45;;;;;;;;;;;;;;;;;;4982993;28;89099;-63
2023/10/25 12:02:10;;;;;;;;;;;;;;;;;;4985181;28;89536;-62
2023/10/25 12:04:36;;;;;;;;;;;;;;;;;;4985672;28;89136;-62
2023/10/25 12:07:01;;;;;;;;;;;;;;;;;;4988541;28;88995;-62
2023/10/25 12:09:26;;;;;;;;;;;;;;;;;;4972106;28;90244;-63
2023/10/25 12:11:51;;;;;;;;;;;;;;;;;;4984647;28;89244;-63
2023/10/25 12:14:16;;;;;;;;;;;;;;;;;;4984347;28;89776;-62
2023/10/25 12:16:42;;;;;;;;;;;;;;;;;;4984774;28;90038;-62
2023/10/25 12:19:07;;;;;;;;;;;;;;;;;;4985411;28;89623;-63
2023/10/25 12:21:32;;;;;;;;;;;;;;;;;;4984329;28;89613;-63
2023/10/25 12:23:57;;;;;;;;;;;;;;;;;;4984949;28;90363;-62
2023/10/25 12:26:23;;;;;;;;;;;;;;;;;;4984083;28;89646;-62
2023/10/25 12:28:48;;;;;;;;;;;;;;;;;;4986898;28;89433;-62
2023/10/25 12:31:13;;;;;;;;;;;;;;;;;;4987111;28;90838;-61
2023/10/25 12:33:39;;;;;;;;;;;;;;;;;;4987991;28;89608;-62
2023/10/25 12:36:04;;;;;;;;;;;;;;;;;;4988554;28;89864;-62
2023/10/25 12:38:29;;;;;;;;;;;;;;;;;;4984605;28;91310;-62
2023/10/25 12:40:54;;;;;;;;;;;;;;;;;;4987208;28;91345;-62
2023/10/25 12:43:20;;;;;;;;;;;;;;;;;;4988198;28;89205;-63
2023/10/25 12:45:45;;;;;;;;;;;;;;;;;;4987561;28;89002;-66
2023/10/25 12:48:10;;;;;;;;;;;;;;;;;;4988418;28;89643;-63
2023/10/25 12:50:35;;;;;;;;;;;;;;;;;;4986956;28;90253;-62
2023/10/25 12:53:01;;;;;;;;;;;;;;;;;;4986321;28;89325;-63
2023/10/25 12:55:26;;;;;;;;;;;;;;;;;;4986422;28;89955;-63
2023/10/25 12:57:52;;;;;;;;;;;;;;;;;;4987019;28;89392;-63
2023/10/25 13:00:17;;;;;;;;;;;;;;;;;;4987374;28;90986;-62
2023/10/25 13:02:42;;;;;;;;;;;;;;;;;;4986614;28;89603;-62
2023/10/25 13:05:08;;;;;;;;;;;;;;;;;;4987388;28;90834;-62
2023/10/25 13:07:33;;;;;;;;;;;;;;;;;;4986668;28;91527;-62
2023/10/25 13:09:58;;;;;;;;;;;;;;;;;;4984476;28;89850;-62
2023/10/25 13:12:23;;;;;;;;;;;;;;;;;;4989321;28;89761;-62
2023/10/25 13:14:49;;;;;;;;;;;;;;;;;;4986344;28;89505;-62
2023/10/25 13:17:15;;;;;;;;;;;;;;;;;;4986283;28;89157;-62
2023/10/25 13:19:40;;;;;;;;;;;;;;;;;;4984664;28;89650;-62
2023/10/25 13:22:06;;;;;;;;;;;;;;;;;;4986364;28;90560;-61
2023/10/25 13:24:31;;;;;;;;;;;;;;;;;;4986810;28;89363;-62
2023/10/25 13:26:56;;;;;;;;;;;;;;;;;;4986187;28;89488;-62
2023/10/25 13:29:21;;;;;;;;;;;;;;;;;;4985671;28;89658;-62
2023/10/25 13:31:46;;;;;;;;;;;;;;;;;;4985334;28;89069;-62
2023/10/25 13:34:12;;;;;;;;;;;;;;;;;;4989446;28;89835;-63
2023/10/25 13:36:37;;;;;;;;;;;;;;;;;;4985824;28;89517;-62
2023/10/25 13:39:03;;;;;;;;;;;;;;;;;;4983817;28;90715;-62
2023/10/25 13:41:28;;;;;;;;;;;;;;;;;;4983415;28;89670;-63
2023/10/25 13:43:54;;;;;;;;;;;;;;;;;;4985924;28;89736;-62
2023/10/25 13:46:19;;;;;;;;;;;;;;;;;;4985384;28;89456;-63
2023/10/25 13:48:44;;;;;;;;;;;;;;;;;;4969684;28;91884;-62
2023/10/25 13:51:10;;;;;;;;;;;;;;;;;;4985458;28;89831;-63
2023/10/25 13:53:38;;;;;;;;;;;;;;;;;;4984857;28;89669;-64
2023/10/25 13:56:03;;;;;;;;;;;;;;;;;;4988774;28;89744;-62
2023/10/25 13:58:29;;;;;;;;;;;;;;;;;;4985317;28;89553;-63
2023/10/25 14:00:54;;;;;;;;;;;;;;;;;;4984504;28;89393;-62
2023/10/25 14:03:20;;;;;;;;;;;;;;;;;;4983875;28;89850;-63
2023/10/25 14:05:45;;;;;;;;;;;;;;;;;;4984403;28;90824;-62
2023/10/25 14:08:11;;;;;;;;;;;;;;;;;;4985096;28;89910;-62
2023/10/25 14:10:42;;;;;;;;;;;;;;;;;;4984979;28;89889;-63
2023/10/25 14:13:08;;;;;;;;;;;;;;;;;;4981785;28;89604;-62
2023/10/25 14:15:34;;;;;;;;;;;;;;;;;;4988330;28;89258;-62
2023/10/25 14:17:59;;;;;;;;;;;;;;;;;;4985022;28;90310;-62
2023/10/25 14:20:24;;;;;;;;;;;;;;;;;;4984751;28;90498;-62
2023/10/25 14:22:49;;;;;;;;;;;;;;;;;;4984347;28;89191;-62
2023/10/25 14:25:15;;;;;;;;;;;;;;;;;;4985307;28;90360;-62
2023/10/25 14:27:40;;;;;;;;;;;;;;;;;;4985005;28;89473;-62
2023/10/25 14:30:05;;;;;;;;;;;;;;;;;;4984567;28;89515;-62
2023/10/25 14:32:31;;;;;;;;;;;;;;;;;;4984789;28;89524;-62
2023/10/25 14:34:56;;;;;;;;;;;;;;;;;;4981713;28;91854;-63
2023/10/25 14:37:21;;;;;;;;;;;;;;;;;;4988266;28;90284;-63
2023/10/25 14:39:46;;;;;;;;;;;;;;;;;;4980270;28;90432;-62
2023/10/25 14:42:12;;;;;;;;;;;;;;;;;;4984224;28;89634;-63
2023/10/25 14:44:37;;;;;;;;;;;;;;;;;;4984426;28;90622;-62
2023/10/25 14:47:03;;;;;;;;;;;;;;;;;;4985629;28;90378;-65
2023/10/25 14:49:30;;;;;;;;;;;;;;;;;;4947026;28;89736;-62
2023/10/25 14:51:55;;;;;;;;;;;;;;;;;;4944415;28;90720;-62
2023/10/25 14:54:20;;;;;;;;;;;;;;;;;;4943653;28;89249;-62
2023/10/25 14:56:45;;;;;;;;;;;;;;;;;;4945090;28;89296;-62
2023/10/25 14:59:10;;;;;;;;;;;;;;;;;;4948186;28;89647;-62
2023/10/25 15:01:36;;;;;;;;;;;;;;;;;;4944673;28;89105;-62
2023/10/25 15:04:01;;;;;;;;;;;;;;;;;;4944683;28;90982;-62
2023/10/25 15:06:28;;;;;;;;;;;;;;;;;;4943794;28;90663;-63
2023/10/25 15:08:53;;;;;;;;;;;;;;;;;;4943628;28;89083;-62
2023/10/25 15:11:18;;;;;;;;;;;;;;;;;;4926910;28;91910;-63
2023/10/25 15:13:43;;;;;;;;;;;;;;;;;;4944832;28;89681;-62
2023/10/25 15:16:09;;;;;;;;;;;;;;;;;;4944252;28;89448;-62
2023/10/25 15:18:36;;;;;;;;;;;;;;;;;;4944906;28;91203;-63
2023/10/25 15:21:01;;;;;;;;;;;;;;;;;;4945908;28;90284;-62
2023/10/25 15:23:26;;;;;;;;;;;;;;;;;;4941907;28;89316;-62
2023/10/25 15:25:51;;;;;;;;;;;;;;;;;;4943280;28;90185;-62
2023/10/25 15:28:16;;;;;;;;;;;;;;;;;;4943884;28;90040;-62
2023/10/25 15:30:42;;;;;;;;;;;;;;;;;;4945699;28;89527;-62
2023/10/25 15:33:07;;;;;;;;;;;;;;;;;;4960448;28;91934;-62
2023/10/25 15:35:33;;;;;;;;;;;;;;;;;;4944744;28;89548;-62
2023/10/25 15:37:58;;;;;;;;;;;;;;;;;;4944563;28;89497;-64
2023/10/25 15:40:23;;;;;;;;;;;;;;;;;;4944664;28;89766;-63
2023/10/25 15:42:48;;;;;;;;;;;;;;;;;;4947552;28;89031;-62
2023/10/25 15:45:15;;;;;;;;;;;;;;;;;;4944611;28;89369;-66
2023/10/25 15:47:41;;;;;;;;;;;;;;;;;;4948400;28;89105;-62
2023/10/25 15:50:06;;;;;;;;;;;;;;;;;;4944404;28;90993;-62
2023/10/25 15:52:31;;;;;;;;;;;;;;;;;;4943722;28;89217;-68
2023/10/25 15:54:57;;;;;;;;;;;;;;;;;;4944676;28;89269;-62
2023/10/25 15:57:22;;;;;;;;;;;;;;;;;;4942530;28;90382;-62
2023/10/25 15:59:48;;;;;;;;;;;;;;;;;;4943926;28;89748;-62
2023/10/25 16:02:14;;;;;;;;;;;;;;;;;;4943470;28;89589;-62
2023/10/25 16:04:39;;;;;;;;;;;;;;;;;;4946677;28;89466;-62
2023/10/25 16:07:04;;;;;;;;;;;;;;;;;;4947653;28;89928;-62
2023/10/25 16:09:29;;;;;;;;;;;;;;;;;;4947120;28;90294;-63
2023/10/25 16:11:54;;;;;;;;;;;;;;;;;;4945593;28;90733;-62
2023/10/25 16:14:20;;;;;;;;;;;;;;;;;;4947168;28;89232;-62
2023/10/25 16:16:45;;;;;;;;;;;;;;;;;;4947462;28;89600;-62
2023/10/25 16:19:10;;;;;;;;;;;;;;;;;;4947139;28;90450;-62
2023/10/25 16:21:35;;;;;;;;;;;;;;;;;;4946629;28;89890;-62
2023/10/25 16:24:01;;;;;;;;;;;;;;;;;;4950593;28;90649;-62
2023/10/25 16:26:26;;;;;;;;;;;;;;;;;;4947866;28;89921;-62
2023/10/25 16:28:51;;;;;;;;;;;;;;;;;;4947194;28;89896;-62
2023/10/25 16:31:16;;;;;;;;;;;;;;;;;;4946743;28;89559;-62
2023/10/25 16:33:42;;;;;;;;;;;;;;;;;;4946304;28;90794;-62
2023/10/25 16:36:10;;;;;;;;;;;;;;;;;;4946713;28;89682;-62
2023/10/25 16:38:36;;;;;;;;;;;;;;;;;;4946686;28;90977;-62